createdAt,value
2022-11-04T00:01:42.987Z,13.90
2022-11-04T00:04:10.971Z,13.90
2022-11-04T00:06:39.177Z,13.90
2022-11-04T00:09:09.355Z,13.90
2022-11-04T00:11:54.953Z,13.90
2022-11-04T00:14:21.676Z,13.90
2022-11-04T00:17:09.495Z,13.90
2022-11-04T00:20:14.705Z,13.90
2022-11-04T00:23:01.083Z,13.90
2022-11-04T00:25:46.732Z,13.80
2022-11-04T00:28:37.112Z,13.80
2022-11-04T00:31:24.620Z,13.80
2022-11-04T00:33:53.167Z,13.80
2022-11-04T00:36:20.224Z,13.70
2022-11-04T00:38:47.191Z,13.70
2022-11-04T00:41:30.300Z,13.70
2022-11-04T00:44:00.058Z,13.70
2022-11-04T00:46:28.004Z,13.70
2022-11-04T00:48:55.144Z,13.70
2022-11-04T00:51:22.336Z,13.70
2022-11-04T00:53:49.644Z,13.70
2022-11-04T00:56:16.774Z,13.70
2022-11-04T00:58:43.353Z,13.70
2022-11-04T01:01:11.383Z,13.60
2022-11-04T01:03:38.532Z,13.60
2022-11-04T01:06:06.078Z,13.60
2022-11-04T01:08:32.862Z,13.60
2022-11-04T01:11:07.206Z,13.60
2022-11-04T01:13:33.995Z,13.60
2022-11-04T01:16:01.965Z,13.60
2022-11-04T01:18:28.907Z,13.60
2022-11-04T01:20:55.612Z,13.60
2022-11-04T01:23:22.223Z,13.50
2022-11-04T01:25:48.794Z,13.60
2022-11-04T01:28:15.507Z,13.50
2022-11-04T01:30:42.096Z,13.50
2022-11-04T01:33:08.890Z,13.50
2022-11-04T01:35:35.478Z,13.50
2022-11-04T01:38:02.138Z,13.50
2022-11-04T01:40:28.872Z,13.40
2022-11-04T01:42:55.651Z,13.40
2022-11-04T01:45:22.848Z,13.40
2022-11-04T01:48:05.520Z,13.40
2022-11-04T01:50:33.744Z,13.40
2022-11-04T01:53:09.454Z,13.30
2022-11-04T01:55:45.322Z,13.30
2022-11-04T01:58:17.386Z,13.30
2022-11-04T02:00:44.666Z,13.20
2022-11-04T02:03:26.265Z,13.20
2022-11-04T02:05:53.935Z,13.20
2022-11-04T02:08:21.177Z,13.20
2022-11-04T02:10:58.514Z,13.20
2022-11-04T02:13:26.428Z,13.10
2022-11-04T02:16:01.751Z,13.10
2022-11-04T02:18:54.430Z,13.10
2022-11-04T02:21:27.544Z,13.10
2022-11-04T02:24:21.486Z,13.00
2022-11-04T02:27:22.923Z,13.00
2022-11-04T02:30:19.725Z,12.90
2022-11-04T02:33:13.734Z,12.90
2022-11-04T02:36:06.598Z,12.80
2022-11-04T02:38:46.422Z,12.80
2022-11-04T02:41:28.497Z,12.80
2022-11-04T02:44:46.165Z,12.70
2022-11-04T02:47:19.783Z,12.70
2022-11-04T02:49:59.138Z,12.70
2022-11-04T02:52:30.978Z,12.70
2022-11-04T02:55:09.985Z,12.60
2022-11-04T02:57:40.154Z,12.60
2022-11-04T03:00:13.286Z,12.60
2022-11-04T03:02:44.255Z,12.60
2022-11-04T03:05:16.221Z,12.50
2022-11-04T03:07:45.556Z,12.50
2022-11-04T03:10:17.613Z,12.40
2022-11-04T03:12:53.847Z,12.40
2022-11-04T03:15:26.909Z,12.40
2022-11-04T03:18:30.120Z,12.40
2022-11-04T03:21:01.651Z,12.40
2022-11-04T03:23:28.794Z,12.30
2022-11-04T03:26:05.423Z,12.30
2022-11-04T03:29:02.750Z,12.30
2022-11-04T03:31:44.151Z,12.20
2022-11-04T03:34:11.134Z,12.20
2022-11-04T03:36:37.875Z,12.20
2022-11-04T03:39:04.526Z,12.20
2022-11-04T03:41:41.206Z,12.20
2022-11-04T03:44:07.785Z,12.20
2022-11-04T03:46:34.498Z,12.10
2022-11-04T03:49:02.956Z,12.10
2022-11-04T03:51:29.525Z,12.10
2022-11-04T03:53:57.871Z,12.10
2022-11-04T03:57:04.380Z,12.10
2022-11-04T04:00:06.858Z,12.00
2022-11-04T04:03:17.705Z,12.00
2022-11-04T04:05:53.780Z,12.00
2022-11-04T04:08:23.346Z,11.90
2022-11-04T04:11:19.595Z,11.90
2022-11-04T04:13:49.262Z,11.90
2022-11-04T04:16:29.429Z,11.90
2022-11-04T04:19:04.709Z,11.80
2022-11-04T04:21:52.978Z,11.80
2022-11-04T04:24:42.110Z,11.80
2022-11-04T04:27:28.499Z,11.70
2022-11-04T04:29:55.509Z,11.70
2022-11-04T04:32:26.138Z,11.70
2022-11-04T04:35:12.917Z,11.70
2022-11-04T04:37:41.322Z,11.70
2022-11-04T04:40:30.560Z,11.70
2022-11-04T04:43:15.829Z,11.60
2022-11-04T04:45:47.925Z,11.60
2022-11-04T04:48:14.533Z,11.60
2022-11-04T04:50:48.508Z,11.60
2022-11-04T04:53:15.715Z,11.50
2022-11-04T04:55:42.287Z,11.50
2022-11-04T04:58:09.871Z,11.50
2022-11-04T05:00:36.636Z,11.50
2022-11-04T05:03:03.233Z,11.50
2022-11-04T05:05:29.838Z,11.50
2022-11-04T05:07:56.404Z,11.40
2022-11-04T05:10:22.950Z,11.40
2022-11-04T05:13:21.945Z,11.40
2022-11-04T05:15:48.539Z,11.40
2022-11-04T05:18:16.758Z,11.40
2022-11-04T05:20:45.727Z,11.40
2022-11-04T05:23:13.530Z,11.40
2022-11-04T05:25:43.930Z,11.40
2022-11-04T05:28:11.090Z,11.40
2022-11-04T05:30:38.944Z,11.40
2022-11-04T05:33:05.981Z,11.30
2022-11-04T05:35:33.690Z,11.30
2022-11-04T05:38:00.739Z,11.30
2022-11-04T05:40:27.517Z,11.30
2022-11-04T05:42:54.189Z,11.30
2022-11-04T05:45:20.785Z,11.20
2022-11-04T05:47:47.506Z,11.20
2022-11-04T05:50:14.256Z,11.20
2022-11-04T05:52:41.078Z,11.20
2022-11-04T05:55:08.076Z,11.20
2022-11-04T05:57:35.628Z,11.20
2022-11-04T06:00:02.429Z,11.20
2022-11-04T06:02:29.232Z,11.20
2022-11-04T06:04:56.098Z,11.20
2022-11-04T06:07:22.682Z,11.20
2022-11-04T06:09:49.424Z,11.20
2022-11-04T06:12:16.803Z,11.20
2022-11-04T06:14:44.318Z,11.20
2022-11-04T06:17:24.198Z,11.10
2022-11-04T06:19:50.938Z,11.20
2022-11-04T06:22:19.737Z,11.10
2022-11-04T06:24:46.369Z,11.10
2022-11-04T06:27:13.281Z,11.10
2022-11-04T06:29:41.123Z,11.20
2022-11-04T06:32:09.471Z,11.20
2022-11-04T06:34:36.240Z,11.20
2022-11-04T06:37:03.526Z,11.20
2022-11-04T06:39:30.380Z,11.10
2022-11-04T06:41:59.635Z,11.20
2022-11-04T06:44:28.974Z,11.10
2022-11-04T06:46:55.865Z,11.20
2022-11-04T06:49:23.304Z,11.10
2022-11-04T06:51:50.432Z,11.20
2022-11-04T06:54:17.777Z,11.20
2022-11-04T06:56:45.428Z,11.20
2022-11-04T06:59:28.190Z,11.20
2022-11-04T07:01:55.063Z,11.20
2022-11-04T07:04:21.732Z,11.20
2022-11-04T07:06:48.581Z,11.20
2022-11-04T07:09:16.051Z,11.20
2022-11-04T07:11:43.946Z,11.20
2022-11-04T07:14:11.051Z,11.20
2022-11-04T07:16:37.941Z,11.20
2022-11-04T07:19:04.998Z,11.20
2022-11-04T07:21:31.913Z,11.20
2022-11-04T07:23:58.673Z,11.30
2022-11-04T07:26:25.525Z,11.30
2022-11-04T07:28:52.251Z,11.30
2022-11-04T07:31:19.383Z,11.30
2022-11-04T07:33:49.985Z,11.30
2022-11-04T07:36:17.562Z,11.40
2022-11-04T07:38:44.631Z,11.40
2022-11-04T07:41:12.036Z,11.40
2022-11-04T07:43:38.600Z,11.40
2022-11-04T07:46:07.706Z,11.50
2022-11-04T07:48:36.727Z,11.50
2022-11-04T07:51:04.924Z,11.50
2022-11-04T07:53:31.714Z,11.50
2022-11-04T07:55:58.895Z,11.50
2022-11-04T07:58:26.149Z,11.60
2022-11-04T08:01:01.951Z,11.60
2022-11-04T08:03:28.653Z,11.60
2022-11-04T08:05:59.322Z,11.60
2022-11-04T08:08:26.976Z,11.70
2022-11-04T08:10:56.923Z,11.70
2022-11-04T08:13:27.021Z,11.70
2022-11-04T08:15:53.646Z,11.70
2022-11-04T08:18:20.259Z,11.80
2022-11-04T08:20:51.142Z,11.80
2022-11-04T08:23:21.131Z,11.80
2022-11-04T08:25:47.785Z,11.90
2022-11-04T08:28:17.773Z,11.90
2022-11-04T08:31:07.495Z,11.90
2022-11-04T08:33:35.703Z,12.00
2022-11-04T08:36:12.218Z,12.10
2022-11-04T08:38:39.161Z,12.10
2022-11-04T08:41:07.635Z,12.10
2022-11-04T08:43:34.960Z,12.10
2022-11-04T08:46:03.821Z,12.20
2022-11-04T08:48:30.507Z,12.20
2022-11-04T08:50:59.173Z,12.20
2022-11-04T08:53:26.111Z,12.30
2022-11-04T08:55:52.904Z,12.30
2022-11-04T08:58:20.283Z,12.40
2022-11-04T09:00:46.922Z,12.40
2022-11-04T09:03:13.698Z,12.40
2022-11-04T09:05:44.948Z,12.40
2022-11-04T09:08:15.655Z,12.50
2022-11-04T09:10:47.623Z,12.50
2022-11-04T09:13:15.770Z,12.60
2022-11-04T09:15:42.626Z,12.60
2022-11-04T09:18:09.624Z,12.60
2022-11-04T09:20:39.784Z,12.60
2022-11-04T09:23:06.865Z,12.70
2022-11-04T09:25:34.519Z,12.70
2022-11-04T09:28:01.275Z,12.80
2022-11-04T09:30:28.197Z,12.80
2022-11-04T09:32:54.771Z,12.90
2022-11-04T09:35:21.339Z,12.90
2022-11-04T09:37:47.947Z,13.00
2022-11-04T09:40:20.736Z,13.00
2022-11-04T09:43:13.774Z,13.10
2022-11-04T09:45:43.558Z,13.10
2022-11-04T09:48:24.535Z,13.10
2022-11-04T09:50:54.864Z,13.20
2022-11-04T09:53:37.516Z,13.20
2022-11-04T09:56:13.430Z,13.20
2022-11-04T09:58:40.047Z,13.30
2022-11-04T10:01:15.562Z,13.30
2022-11-04T10:03:53.830Z,13.30
2022-11-04T10:06:32.812Z,13.40
2022-11-04T10:09:32.105Z,13.40
2022-11-04T10:12:15.926Z,13.40
2022-11-04T10:15:12.774Z,13.50
2022-11-04T10:17:39.307Z,13.50
2022-11-04T10:20:42.567Z,13.50
2022-11-04T10:23:16.501Z,13.60
2022-11-04T10:26:07.733Z,13.60
2022-11-04T10:28:41.370Z,13.70
2022-11-04T10:31:14.013Z,13.70
2022-11-04T10:34:08.997Z,13.80
2022-11-04T10:36:37.805Z,13.90
2022-11-04T10:39:16.894Z,13.90
2022-11-04T10:41:45.847Z,13.90
2022-11-04T10:44:22.491Z,14.10
2022-11-04T10:47:19.964Z,14.10
2022-11-04T10:50:30.989Z,14.20
2022-11-04T10:53:12.752Z,14.20
2022-11-04T10:55:54.429Z,14.30
2022-11-04T10:58:39.982Z,14.40
2022-11-04T11:01:32.647Z,14.50
2022-11-04T11:04:00.161Z,14.60
2022-11-04T11:06:31.838Z,14.60
2022-11-04T11:09:18.431Z,14.60
2022-11-04T11:11:53.225Z,14.70
2022-11-04T11:14:19.739Z,14.70
2022-11-04T11:16:48.035Z,14.80
2022-11-04T11:19:24.894Z,14.90
2022-11-04T11:21:54.452Z,14.90
2022-11-04T11:24:22.413Z,14.90
2022-11-04T11:26:54.672Z,15.00
2022-11-04T11:29:24.879Z,15.00
2022-11-04T11:31:52.978Z,15.10
2022-11-04T11:34:26.364Z,15.20
2022-11-04T11:36:55.614Z,15.20
2022-11-04T11:39:28.444Z,15.20
2022-11-04T11:42:06.332Z,15.30
2022-11-04T11:44:37.414Z,15.30
2022-11-04T11:47:30.094Z,15.40
2022-11-04T11:50:18.482Z,15.40
2022-11-04T11:52:46.812Z,15.50
2022-11-04T11:55:42.096Z,15.50
2022-11-04T12:01:42.536Z,15.50
2022-11-04T12:10:48.627Z,15.60
2022-11-04T12:13:36.832Z,15.60
2022-11-04T12:16:27.611Z,15.70
2022-11-04T12:19:31.072Z,15.70
2022-11-04T12:22:15.944Z,15.70
2022-11-04T12:25:22.493Z,15.70
2022-11-04T12:28:24.228Z,15.90
2022-11-04T12:31:22.209Z,15.90
2022-11-04T12:34:02.687Z,15.90
2022-11-04T12:36:53.707Z,15.90
2022-11-04T12:40:08.114Z,16.00
2022-11-04T12:42:49.690Z,16.00
2022-11-04T12:45:30.525Z,16.10
2022-11-04T12:48:09.430Z,16.10
2022-11-04T12:51:02.520Z,16.10
2022-11-04T12:53:44.370Z,16.10
2022-11-04T12:56:27.083Z,16.20
2022-11-04T12:59:16.416Z,16.20
2022-11-04T13:01:56.566Z,16.30
2022-11-04T13:04:33.468Z,16.30
2022-11-04T13:07:30.839Z,16.30
2022-11-04T13:10:04.010Z,16.40
2022-11-04T13:12:37.583Z,16.40
2022-11-04T13:15:22.699Z,16.40
2022-11-04T13:17:51.068Z,16.50
2022-11-04T13:20:32.641Z,16.50
2022-11-04T13:23:04.298Z,16.50
2022-11-04T13:25:54.077Z,16.50
2022-11-04T13:28:22.539Z,16.50
2022-11-04T13:31:02.530Z,16.50
2022-11-04T13:33:52.415Z,16.50
2022-11-04T13:36:40.380Z,16.60
2022-11-04T13:39:24.560Z,16.50
2022-11-04T13:41:57.058Z,16.50
2022-11-04T13:44:35.258Z,16.50
2022-11-04T13:47:05.783Z,16.50
2022-11-04T13:49:34.188Z,16.40
2022-11-04T13:52:13.454Z,16.40
2022-11-04T13:54:46.866Z,16.40
2022-11-04T13:57:20.518Z,16.40
2022-11-04T14:00:23.736Z,16.40
2022-11-04T14:02:52.673Z,16.30
2022-11-04T14:05:42.495Z,16.30
2022-11-04T14:08:13.288Z,16.20
2022-11-04T14:10:44.093Z,16.20
2022-11-04T14:13:35.194Z,16.20
2022-11-04T14:16:04.551Z,16.20
2022-11-04T14:18:33.607Z,16.20
2022-11-04T14:21:20.238Z,16.10
2022-11-04T14:23:56.643Z,16.10
2022-11-04T14:26:30.791Z,16.10
2022-11-04T14:29:07.437Z,16.10
2022-11-04T14:31:40.126Z,16.10
2022-11-04T14:34:08.260Z,16.10
2022-11-04T14:36:41.457Z,16.10
2022-11-04T14:39:10.730Z,16.10
2022-11-04T14:41:40.182Z,16.00
2022-11-04T14:44:13.036Z,16.00
2022-11-04T14:46:45.778Z,16.00
2022-11-04T14:49:46.499Z,15.90
2022-11-04T14:52:24.528Z,15.90
2022-11-04T14:54:56.931Z,15.90
2022-11-04T14:57:24.154Z,15.80
2022-11-04T14:59:52.226Z,15.90
2022-11-04T15:02:24.824Z,15.80
2022-11-04T15:05:13.520Z,15.70
2022-11-04T15:07:44.202Z,15.70
2022-11-04T15:10:24.649Z,15.70
2022-11-04T15:13:00.575Z,15.70
2022-11-04T15:15:30.031Z,15.60
2022-11-04T15:18:05.164Z,15.60
2022-11-04T15:20:32.810Z,15.60
2022-11-04T15:23:02.609Z,15.60
2022-11-04T15:25:29.387Z,15.50
2022-11-04T15:27:56.815Z,15.50
2022-11-04T15:30:29.573Z,15.40
2022-11-04T15:33:01.985Z,15.40
2022-11-04T15:35:31.578Z,15.40
2022-11-04T15:38:00.003Z,15.30
2022-11-04T15:40:30.600Z,15.20
2022-11-04T15:43:01.470Z,15.20
2022-11-04T15:45:37.126Z,15.20
2022-11-04T15:48:29.194Z,15.20
2022-11-04T15:51:19.917Z,15.10
2022-11-04T15:53:53.285Z,15.10
2022-11-04T15:56:24.177Z,15.00
2022-11-04T15:58:52.127Z,15.00
2022-11-04T16:01:21.442Z,14.90
2022-11-04T16:03:54.234Z,14.90
2022-11-04T16:06:34.533Z,14.80
2022-11-04T16:09:17.520Z,14.80
2022-11-04T16:12:05.316Z,14.80
2022-11-04T16:14:32.143Z,14.70
2022-11-04T16:16:58.802Z,14.70
2022-11-04T16:19:28.590Z,14.60
2022-11-04T16:22:19.338Z,14.60
2022-11-04T16:24:48.862Z,14.60
2022-11-04T16:27:19.040Z,14.60
2022-11-04T16:29:59.296Z,14.50
2022-11-04T16:32:27.747Z,14.50
2022-11-04T16:35:00.834Z,14.40
2022-11-04T16:37:27.789Z,14.40
2022-11-04T16:39:54.498Z,14.40
2022-11-04T16:42:22.975Z,14.30
2022-11-04T16:44:52.778Z,14.30
2022-11-04T16:47:19.706Z,14.30
2022-11-04T16:49:46.635Z,14.20
2022-11-04T16:52:18.279Z,14.20
2022-11-04T16:54:47.790Z,14.20
2022-11-04T16:57:15.396Z,14.10
2022-11-04T16:59:42.331Z,14.10
2022-11-04T17:02:21.222Z,14.00
2022-11-04T17:04:48.046Z,14.00
2022-11-04T17:07:14.818Z,14.00
2022-11-04T17:09:41.402Z,14.00
2022-11-04T17:12:08.781Z,13.90
2022-11-04T17:14:35.903Z,13.90
2022-11-04T17:17:03.920Z,13.80
2022-11-04T17:19:34.595Z,13.80
2022-11-04T17:22:04.152Z,13.80
2022-11-04T17:24:30.841Z,13.70
2022-11-04T17:26:57.585Z,13.70
2022-11-04T17:29:24.199Z,13.70
2022-11-04T17:31:52.837Z,13.70
2022-11-04T17:34:20.270Z,13.70
2022-11-04T17:36:46.876Z,13.60
2022-11-04T17:39:13.561Z,13.60
2022-11-04T17:41:58.939Z,13.50
2022-11-04T17:44:25.526Z,13.50
2022-11-04T17:46:52.157Z,13.50
2022-11-04T17:49:24.041Z,13.40
2022-11-04T17:51:56.899Z,13.40
2022-11-04T17:54:24.894Z,13.40
2022-11-04T17:56:51.766Z,13.40
2022-11-04T17:59:18.611Z,13.30
2022-11-04T18:01:45.932Z,13.20
2022-11-04T18:04:15.620Z,13.20
2022-11-04T18:06:42.896Z,13.20
2022-11-04T18:09:12.529Z,13.20
2022-11-04T18:11:57.922Z,13.20
2022-11-04T18:14:24.538Z,13.10
2022-11-04T18:16:51.267Z,13.10
2022-11-04T18:19:20.987Z,13.10
2022-11-04T18:21:48.932Z,13.00
2022-11-04T18:24:15.975Z,13.00
2022-11-04T18:26:43.422Z,13.00
2022-11-04T18:29:10.479Z,12.90
2022-11-04T18:31:44.660Z,12.90
2022-11-04T18:34:17.629Z,12.90
2022-11-04T18:36:44.288Z,12.90
2022-11-04T18:39:14.082Z,12.90
2022-11-04T18:41:41.000Z,12.80
2022-11-04T18:44:08.828Z,12.80
2022-11-04T18:46:35.476Z,12.80
2022-11-04T18:49:02.397Z,12.70
2022-11-04T18:51:29.034Z,12.70
2022-11-04T18:53:55.701Z,12.70
2022-11-04T18:56:23.286Z,12.70
2022-11-04T18:58:50.129Z,12.70
2022-11-04T19:01:43.473Z,12.70
2022-11-04T19:04:10.328Z,12.70
2022-11-04T19:06:41.275Z,12.70
2022-11-04T19:09:44.930Z,12.70
2022-11-04T19:12:16.110Z,12.70
2022-11-04T19:14:44.073Z,12.60
2022-11-04T19:17:11.407Z,12.60
2022-11-04T19:19:40.998Z,12.60
2022-11-04T19:22:08.493Z,12.60
2022-11-04T19:24:36.157Z,12.50
2022-11-04T19:27:03.016Z,12.50
2022-11-04T19:29:29.781Z,12.50
2022-11-04T19:31:56.533Z,12.50
2022-11-04T19:34:23.251Z,12.40
2022-11-04T19:36:50.038Z,12.40
2022-11-04T19:39:16.808Z,12.40
2022-11-04T19:42:02.323Z,12.40
2022-11-04T19:44:28.993Z,12.40
2022-11-04T19:46:55.612Z,12.30
2022-11-04T19:49:22.427Z,12.30
2022-11-04T19:51:48.989Z,12.20
2022-11-04T19:54:15.631Z,12.20
2022-11-04T19:56:42.519Z,12.20
2022-11-04T19:59:10.709Z,12.20
2022-11-04T20:01:37.456Z,12.20
2022-11-04T20:04:04.931Z,12.20
2022-11-04T20:06:35.506Z,12.10
2022-11-04T20:09:05.660Z,12.10
2022-11-04T20:11:56.222Z,12.10
2022-11-04T20:14:23.258Z,12.10
2022-11-04T20:16:49.895Z,12.10
2022-11-04T20:19:21.476Z,12.10
2022-11-04T20:21:49.424Z,12.00
2022-11-04T20:24:16.055Z,12.00
2022-11-04T20:26:46.964Z,12.00
2022-11-04T20:29:15.860Z,12.00
2022-11-04T20:31:43.316Z,12.00
2022-11-04T20:34:11.681Z,12.00
2022-11-04T20:36:39.307Z,12.00
2022-11-04T20:39:14.314Z,12.00
2022-11-04T20:41:41.651Z,12.00
2022-11-04T20:44:10.578Z,11.90
2022-11-04T20:46:37.241Z,12.00
2022-11-04T20:49:04.290Z,12.00
2022-11-04T20:51:34.483Z,12.00
2022-11-04T20:54:04.314Z,12.00
2022-11-04T20:56:36.898Z,12.00
2022-11-04T20:59:04.122Z,12.00
2022-11-04T21:01:33.524Z,12.00
2022-11-04T21:04:04.786Z,12.10
2022-11-04T21:06:33.406Z,12.00
2022-11-04T21:09:00.502Z,12.00
2022-11-04T21:11:31.881Z,12.00
2022-11-04T21:13:59.235Z,12.00
2022-11-04T21:16:25.962Z,12.00
2022-11-04T21:18:52.801Z,12.00
2022-11-04T21:21:19.444Z,12.10
2022-11-04T21:23:46.819Z,12.00
2022-11-04T21:26:21.567Z,12.00
2022-11-04T21:28:49.181Z,12.00
2022-11-04T21:31:15.751Z,12.10
2022-11-04T21:33:42.305Z,12.10
2022-11-04T21:36:11.920Z,12.00
2022-11-04T21:38:39.809Z,12.00
2022-11-04T21:41:13.419Z,12.00
2022-11-04T21:43:40.906Z,12.00
2022-11-04T21:46:14.641Z,12.10
2022-11-04T21:48:42.845Z,12.00
2022-11-04T21:51:19.249Z,12.00
2022-11-04T21:53:46.050Z,12.10
2022-11-04T21:56:15.400Z,12.00
2022-11-04T21:58:46.011Z,12.00
2022-11-04T22:01:18.670Z,12.10
2022-11-04T22:03:49.742Z,12.10
2022-11-04T22:06:16.362Z,12.00
2022-11-04T22:08:44.920Z,12.10
2022-11-04T22:11:21.490Z,12.10
2022-11-04T22:13:48.055Z,12.10
2022-11-04T22:16:17.650Z,12.00
2022-11-04T22:18:44.493Z,12.00
2022-11-04T22:21:13.866Z,12.00
2022-11-04T22:23:40.649Z,12.00
2022-11-04T22:26:11.688Z,12.00
2022-11-04T22:28:38.314Z,11.90
2022-11-04T22:31:11.119Z,11.90
2022-11-04T22:33:38.354Z,11.90
2022-11-04T22:36:06.375Z,11.90
2022-11-04T22:38:36.889Z,11.90
2022-11-04T22:41:05.910Z,11.90
2022-11-04T22:43:32.873Z,11.90
2022-11-04T22:46:14.040Z,11.80
2022-11-04T22:48:41.026Z,11.80
2022-11-04T22:51:09.203Z,11.80
2022-11-04T22:53:38.411Z,11.80
2022-11-04T22:56:06.838Z,11.80
2022-11-04T22:58:34.185Z,11.70
2022-11-04T23:01:04.461Z,11.70
2022-11-04T23:03:31.451Z,11.70
2022-11-04T23:06:00.389Z,11.70
2022-11-04T23:08:28.808Z,11.70
2022-11-04T23:11:16.226Z,11.60
2022-11-04T23:14:08.160Z,11.60
2022-11-04T23:16:53.539Z,11.60
2022-11-04T23:19:20.201Z,11.60
2022-11-04T23:22:05.389Z,11.50
2022-11-04T23:24:50.989Z,11.50
2022-11-04T23:27:36.840Z,11.40
2022-11-04T23:30:21.270Z,11.40
2022-11-04T23:32:48.886Z,11.40
2022-11-04T23:35:34.376Z,11.40
2022-11-04T23:38:01.796Z,11.40
2022-11-04T23:40:29.793Z,11.30
2022-11-04T23:42:56.604Z,11.30
2022-11-04T23:45:42.188Z,11.20
2022-11-04T23:48:33.539Z,11.20
2022-11-04T23:51:19.935Z,11.20
2022-11-04T23:54:06.371Z,11.20
2022-11-04T23:56:51.959Z,11.20
2022-11-04T23:59:37.668Z,11.10
